Time;durP1;ratioP1;P1;durP2;ratioP2;P2;SDS_P1;SDS_P2;PMS_P1;PMS_P2;Temp;Humidity;BMP_temperature;BMP_pressure;BME280_temperature;BME280_humidity;BME280_pressure;Samples;Min_cycle;Max_cycle;Signal;HPM_P1;HPM_P2
2023/01/13 00:00:53;;;;;;;2.65;0.40;;;11.30;99.90;;;;;;5093224;28;20495;-76
2023/01/13 00:03:19;;;;;;;1.63;0.50;;;11.20;99.90;;;;;;5093658;28;20066;-72
2023/01/13 00:05:45;;;;;;;2.55;0.25;;;11.20;99.90;;;;;;5112055;28;20061;-73
2023/01/13 00:08:10;;;;;;;0.60;0.30;;;11.20;99.90;;;;;;5092924;28;20023;-72
2023/01/13 00:10:36;;;;;;;2.95;0.40;;;11.20;99.90;;;;;;5096992;28;20027;-73
2023/01/13 00:13:04;;;;;;;2.35;0.30;;;11.20;99.90;;;;;;5094826;28;20400;-73
2023/01/13 00:15:29;;;;;;;0.77;0.20;;;11.20;99.90;;;;;;5096827;28;20028;-72
2023/01/13 00:17:55;;;;;;;1.65;0.40;;;11.20;99.90;;;;;;5075898;28;20520;-79
2023/01/13 00:20:21;;;;;;;4.15;0.50;;;11.20;99.90;;;;;;5076862;28;20032;-72
2023/01/13 00:22:46;;;;;;;3.20;0.40;;;11.20;99.90;;;;;;5095042;28;20024;-72
2023/01/13 00:25:12;;;;;;;1.75;0.40;;;11.20;99.90;;;;;;5100139;28;20028;-73
2023/01/13 00:27:38;;;;;;;0.38;0.30;;;11.20;99.90;;;;;;5093285;28;20532;-72
2023/01/13 00:30:04;;;;;;;2.45;0.40;;;11.20;99.90;;;;;;5096255;28;20052;-73
2023/01/13 00:32:30;;;;;;;2.67;0.45;;;11.20;99.90;;;;;;5115403;28;20066;-73
2023/01/13 00:34:55;;;;;;;2.42;0.30;;;11.20;99.90;;;;;;5096535;28;20054;-75
2023/01/13 00:37:22;;;;;;;1.13;0.47;;;11.20;99.90;;;;;;5096979;28;20024;-72
2023/01/13 00:39:49;;;;;;;1.83;0.40;;;11.30;99.90;;;;;;5096813;28;20118;-72
2023/01/13 00:44:58;;;;;;;1.55;0.30;;;11.30;99.90;;;;;;5114324;28;20058;-72
2023/01/13 00:47:24;;;;;;;2.08;0.25;;;11.30;99.90;;;;;;5096445;28;20028;-72
2023/01/13 00:49:50;;;;;;;1.38;0.13;;;11.30;99.90;;;;;;5096749;28;20122;-72
2023/01/13 00:52:15;;;;;;;1.75;0.30;;;11.20;99.90;;;;;;5096072;28;20024;-72
2023/01/13 00:54:41;;;;;;;1.90;0.30;;;11.10;99.90;;;;;;5114521;28;20024;-72
2023/01/13 00:57:07;;;;;;;2.28;0.28;;;11.10;99.90;;;;;;5114385;28;20027;-72
2023/01/13 00:59:32;;;;;;;2.17;0.20;;;11.00;99.90;;;;;;5096615;28;20104;-72
2023/01/13 01:01:58;;;;;;;0.65;0.30;;;11.00;99.90;;;;;;5095701;28;20461;-74
2023/01/13 01:04:24;;;;;;;2.28;0.30;;;11.00;99.90;;;;;;5096670;28;20024;-72
2023/01/13 01:06:50;;;;;;;1.38;0.13;;;11.00;99.90;;;;;;5114799;28;20387;-72
2023/01/13 01:09:16;;;;;;;1.15;0.22;;;11.00;99.90;;;;;;5114086;28;20023;-72
2023/01/13 01:11:42;;;;;;;2.53;0.40;;;11.00;99.90;;;;;;5096342;28;20035;-72
2023/01/13 01:14:11;;;;;;;3.03;0.40;;;11.00;99.90;;;;;;5095546;28;20035;-72
2023/01/13 01:16:38;;;;;;;2.25;0.20;;;10.90;99.90;;;;;;5096486;28;20076;-72
2023/01/13 01:19:05;;;;;;;1.98;0.40;;;10.90;99.90;;;;;;5095326;28;20047;-72
2023/01/13 01:21:31;;;;;;;1.23;0.32;;;10.90;99.90;;;;;;5113490;28;20412;-73
2023/01/13 01:24:00;;;;;;;1.42;0.30;;;10.90;99.90;;;;;;5095922;28;20453;-75
2023/01/13 01:26:27;;;;;;;1.25;0.22;;;10.90;99.90;;;;;;5096117;28;20039;-73
2023/01/13 01:28:53;;;;;;;1.77;0.30;;;10.80;99.90;;;;;;5096005;28;20023;-72
2023/01/13 01:31:22;;;;;;;1.52;0.38;;;10.80;99.90;;;;;;5095036;28;20027;-72
2023/01/13 01:33:48;;;;;;;2.72;0.45;;;10.70;99.90;;;;;;5095998;28;20045;-73
2023/01/13 01:36:16;;;;;;;1.27;0.40;;;10.60;99.90;;;;;;5095179;28;20361;-73
2023/01/13 01:38:42;;;;;;;0.43;0.28;;;10.60;99.90;;;;;;5095838;28;20032;-72
2023/01/13 01:41:21;;;;;;;3.35;0.50;;;10.60;99.90;;;;;;5095180;28;20506;-72
2023/01/13 01:44:18;;;;;;;3.30;0.57;;;10.50;99.90;;;;;;5095706;28;20118;-73
2023/01/13 01:46:44;;;;;;;3.35;0.40;;;10.50;99.90;;;;;;5057270;28;20035;-73
2023/01/13 01:49:22;;;;;;;2.05;0.30;;;10.50;99.90;;;;;;5094927;28;20118;-73
2023/01/13 01:51:54;;;;;;;0.85;0.30;;;10.40;99.90;;;;;;5095156;28;20038;-73
2023/01/13 01:54:29;;;;;;;2.67;0.25;;;10.50;99.90;;;;;;5095029;28;20235;-72
2023/01/13 01:56:55;;;;;;;1.50;0.40;;;10.50;99.90;;;;;;5113733;28;20031;-72
2023/01/13 01:59:20;;;;;;;2.15;0.32;;;10.50;99.90;;;;;;5113158;28;20081;-73
2023/01/13 02:01:47;;;;;;;0.38;0.20;;;10.60;99.90;;;;;;5113888;28;20032;-72
2023/01/13 02:04:18;;;;;;;2.25;0.30;;;10.60;99.90;;;;;;5094663;28;20024;-73
2023/01/13 02:06:46;;;;;;;2.28;0.25;;;10.60;99.90;;;;;;5095305;28;20019;-73
2023/01/13 02:09:12;;;;;;;2.25;0.40;;;10.70;99.90;;;;;;5094609;28;20024;-73
2023/01/13 02:14:26;;;;;;;2.90;0.30;;;10.70;99.90;;;;;;5113006;28;20074;-73
2023/01/13 02:17:05;;;;;;;3.10;0.50;;;10.70;99.90;;;;;;5094879;28;20023;-73
2023/01/13 02:19:37;;;;;;;3.10;0.38;;;10.70;99.90;;;;;;5095333;28;20034;-73
2023/01/13 02:22:13;;;;;;;1.92;0.30;;;10.70;99.90;;;;;;5112487;28;20024;-75
2023/01/13 02:25:03;;;;;;;0.40;0.20;;;10.60;99.90;;;;;;5113030;28;20469;-73
2023/01/13 02:27:50;;;;;;;3.85;0.40;;;10.60;99.90;;;;;;5113194;28;20050;-73
2023/01/13 02:33:50;;;;;;;5.60;0.80;;;10.50;99.90;;;;;;5112873;28;20484;-72
2023/01/13 02:36:47;;;;;;;2.13;0.30;;;10.40;99.90;;;;;;5112253;28;20024;-73
2023/01/13 02:39:15;;;;;;;1.05;0.40;;;10.40;99.90;;;;;;5112162;28;20421;-73
2023/01/13 02:44:52;;;;;;;2.63;0.80;;;10.40;99.90;;;;;;5113124;28;20046;-72
2023/01/13 02:47:24;;;;;;;1.15;0.45;;;10.40;99.90;;;;;;5112441;28;20107;-73
2023/01/13 02:49:59;;;;;;;1.85;0.30;;;10.50;99.90;;;;;;5094942;28;20031;-73
2023/01/13 02:52:40;;;;;;;1.90;0.30;;;10.50;99.90;;;;;;5112480;28;20484;-73
2023/01/13 02:55:12;;;;;;;1.98;0.30;;;10.50;99.90;;;;;;5094011;28;20130;-73
2023/01/13 02:57:39;;;;;;;1.58;0.50;;;10.50;99.90;;;;;;5094796;28;20034;-72
2023/01/13 03:00:08;;;;;;;1.95;0.40;;;10.60;99.90;;;;;;5094030;28;20035;-74
2023/01/13 03:02:34;;;;;;;2.78;0.40;;;10.60;99.90;;;;;;5094855;28;20031;-72
2023/01/13 03:05:00;;;;;;;0.98;0.40;;;10.60;99.90;;;;;;5112815;28;20130;-73
2023/01/13 03:08:04;;;;;;;2.42;0.47;;;10.70;99.90;;;;;;5093926;28;20027;-73
2023/01/13 03:10:57;;;;;;;0.95;0.30;;;10.70;99.90;;;;;;5094236;28;20064;-73
2023/01/13 03:13:47;;;;;;;0.98;0.40;;;10.80;99.90;;;;;;5112150;28;20023;-72
2023/01/13 03:16:25;;;;;;;1.00;0.40;;;10.80;99.90;;;;;;5093858;28;20023;-72
2023/01/13 03:19:20;;;;;;;1.58;0.50;;;10.80;99.90;;;;;;5093909;28;20043;-71
2023/01/13 03:22:10;;;;;;;0.40;0.20;;;10.90;99.90;;;;;;5094264;28;20388;-73
2023/01/13 03:24:43;;;;;;;3.13;0.40;;;10.90;99.90;;;;;;5094547;28;20084;-72
2023/01/13 03:27:34;;;;;;;1.52;0.40;;;10.90;99.90;;;;;;5111740;28;20039;-73
2023/01/13 03:30:07;;;;;;;1.38;0.20;;;10.90;99.90;;;;;;5094404;28;20074;-72
2023/01/13 03:32:40;;;;;;;1.42;0.52;;;11.00;99.90;;;;;;5112645;28;20036;-72
2023/01/13 03:35:10;;;;;;;2.38;0.35;;;11.00;99.90;;;;;;5112054;28;20031;-73
2023/01/13 03:37:40;;;;;;;0.77;0.20;;;11.00;99.90;;;;;;5112549;28;20031;-72
2023/01/13 03:40:13;;;;;;;1.80;0.35;;;11.10;99.90;;;;;;5112132;28;20062;-74
2023/01/13 03:44:20;;;;;;;1.52;0.30;;;11.10;99.90;;;;;;5112505;28;20023;-73
2023/01/13 03:45:30;;;;;;;1.40;0.30;;;11.10;99.90;;;;;;5114452;28;20027;-72
2023/01/13 03:47:58;;;;;;;1.20;0.17;;;11.10;99.90;;;;;;5116187;28;20480;-72
2023/01/13 03:50:33;;;;;;;0.63;0.20;;;11.10;99.90;;;;;;5097014;28;20650;-72
2023/01/13 03:53:08;;;;;;;2.28;0.40;;;11.10;99.90;;;;;;5116313;28;20028;-72
2023/01/13 03:55:41;;;;;;;2.65;0.30;;;11.20;99.90;;;;;;5116226;28;20462;-72
2023/01/13 03:58:24;;;;;;;1.33;0.32;;;11.20;99.90;;;;;;5097230;28;20035;-76
2023/01/13 04:01:13;;;;;;;0.22;0.20;;;11.10;99.90;;;;;;5090436;28;20355;-73
2023/01/13 04:03:44;;;;;;;2.40;0.20;;;11.20;99.90;;;;;;5085104;28;20020;-73
2023/01/13 04:06:34;;;;;;;1.75;0.30;;;11.20;99.90;;;;;;5114383;28;20475;-73
2023/01/13 04:09:20;;;;;;;1.45;0.20;;;11.20;99.90;;;;;;5085911;28;20040;-73
2023/01/13 04:11:52;;;;;;;0.38;0.20;;;11.10;99.90;;;;;;5095139;28;20031;-72
2023/01/13 04:14:19;;;;;;;2.45;0.13;;;11.10;99.90;;;;;;5096514;28;20019;-73
2023/01/13 04:16:47;;;;;;;1.63;0.30;;;11.10;99.90;;;;;;5096940;28;20038;-73
2023/01/13 04:19:12;;;;;;;1.70;0.25;;;11.10;99.90;;;;;;5096397;28;20020;-73
2023/01/13 04:21:38;;;;;;;0.77;0.28;;;11.10;99.90;;;;;;5115368;28;20030;-72
2023/01/13 04:24:04;;;;;;;1.08;0.22;;;11.10;99.90;;;;;;5097198;28;20020;-72
2023/01/13 04:26:29;;;;;;;0.50;0.20;;;11.10;99.90;;;;;;5114532;28;20031;-73
2023/01/13 04:28:55;;;;;;;0.73;0.25;;;11.10;99.90;;;;;;5089999;28;20504;-72
2023/01/13 04:31:21;;;;;;;1.80;0.20;;;11.10;99.90;;;;;;5075969;28;20169;-72
2023/01/13 04:33:46;;;;;;;0.47;0.10;;;11.10;99.90;;;;;;5095717;28;20376;-73
2023/01/13 04:36:12;;;;;;;1.70;0.40;;;11.10;99.90;;;;;;5096409;28;20015;-73
2023/01/13 04:38:38;;;;;;;2.15;0.17;;;11.10;99.90;;;;;;5096417;28;20016;-73
2023/01/13 04:41:03;;;;;;;2.50;0.20;;;11.10;99.90;;;;;;5114724;28;20028;-72
2023/01/13 04:43:29;;;;;;;0.40;0.20;;;11.10;99.90;;;;;;5096034;28;20030;-73
2023/01/13 04:45:54;;;;;;;0.60;0.15;;;11.10;99.90;;;;;;5114890;28;20032;-72
2023/01/13 04:48:20;;;;;;;0.60;0.45;;;11.10;99.90;;;;;;5095914;28;20024;-73
2023/01/13 04:50:46;;;;;;;1.50;0.13;;;11.10;99.90;;;;;;5096205;28;20456;-72
2023/01/13 04:53:11;;;;;;;0.80;0.20;;;11.10;99.90;;;;;;5114228;28;20433;-73
2023/01/13 04:55:37;;;;;;;3.28;0.25;;;11.10;99.90;;;;;;5094597;28;20384;-73
2023/01/13 04:58:08;;;;;;;2.00;0.20;;;11.10;99.90;;;;;;5096524;28;20032;-73
2023/01/13 05:00:34;;;;;;;0.70;0.20;;;11.10;99.90;;;;;;5110629;28;20031;-72
2023/01/13 05:03:00;;;;;;;1.02;0.15;;;11.10;99.90;;;;;;5114501;28;20080;-72
2023/01/13 05:05:27;;;;;;;1.80;0.22;;;11.10;99.90;;;;;;5095609;28;20030;-72
2023/01/13 05:07:53;;;;;;;0.32;0.17;;;11.10;99.90;;;;;;5096223;28;20168;-73
2023/01/13 05:10:19;;;;;;;0.93;0.10;;;11.10;99.90;;;;;;5089952;28;20532;-73
2023/01/13 05:18:14;;;;;;;0.43;0.00;;;11.10;99.90;;;;;;5099392;28;20161;-73
2023/01/13 05:20:39;;;;;;;1.08;0.20;;;11.10;99.90;;;;;;5095596;28;20132;-73
2023/01/13 05:25:49;;;;;;;1.15;0.17;;;11.10;99.90;;;;;;5113697;28;20042;-72
2023/01/13 05:28:15;;;;;;;0.82;0.10;;;11.10;99.90;;;;;;5094750;28;20110;-73
2023/01/13 05:30:44;;;;;;;0.73;0.20;;;11.10;99.90;;;;;;5095599;28;20476;-72
2023/01/13 05:33:15;;;;;;;0.45;0.10;;;11.10;99.90;;;;;;5095173;28;20027;-75
2023/01/13 05:35:42;;;;;;;0.57;0.10;;;11.10;99.90;;;;;;5095324;28;20461;-73
2023/01/13 05:38:08;;;;;;;1.33;0.22;;;11.10;99.90;;;;;;5095461;28;20035;-74
2023/01/13 05:43:23;;;;;;;0.25;0.10;;;11.10;99.90;;;;;;5113212;28;20432;-73
2023/01/13 05:45:55;;;;;;;1.50;0.10;;;11.00;99.90;;;;;;5095146;28;20027;-73
2023/01/13 05:48:22;;;;;;;0.75;0.10;;;11.00;99.90;;;;;;5094221;28;20026;-73
2023/01/13 05:50:48;;;;;;;0.63;0.10;;;11.00;99.90;;;;;;5094851;28;20043;-72
2023/01/13 05:53:14;;;;;;;0.65;0.20;;;11.00;99.90;;;;;;5094473;28;20032;-73
2023/01/13 05:55:41;;;;;;;1.05;0.10;;;11.00;99.90;;;;;;5113629;28;20047;-72
2023/01/13 05:58:08;;;;;;;2.20;0.15;;;11.00;99.90;;;;;;5094508;28;20031;-72
2023/01/13 06:00:34;;;;;;;1.17;0.10;;;11.00;99.90;;;;;;5090950;28;20036;-73
2023/01/13 06:03:00;;;;;;;2.03;0.20;;;11.00;99.90;;;;;;5092949;28;20431;-72
2023/01/13 06:05:27;;;;;;;0.20;0.13;;;11.00;99.90;;;;;;5092264;28;20024;-73
2023/01/13 06:07:56;;;;;;;1.48;0.30;;;11.00;99.90;;;;;;5094188;28;20796;-73
2023/01/13 06:10:22;;;;;;;0.73;0.15;;;11.00;99.90;;;;;;5112135;28;20071;-72
2023/01/13 06:12:48;;;;;;;2.90;0.40;;;11.00;99.90;;;;;;5095009;28;20062;-72
2023/01/13 06:15:13;;;;;;;1.17;0.20;;;11.00;99.90;;;;;;5094124;28;20077;-77
2023/01/13 06:17:39;;;;;;;0.47;0.10;;;11.00;99.90;;;;;;5112718;28;20036;-73
2023/01/13 06:20:07;;;;;;;0.93;0.20;;;11.00;99.90;;;;;;5094737;28;20023;-73
2023/01/13 06:22:35;;;;;;;1.00;0.15;;;11.00;99.90;;;;;;5093982;28;20015;-73
2023/01/13 06:25:02;;;;;;;0.32;0.10;;;11.00;99.90;;;;;;5094909;28;20058;-72
2023/01/13 06:27:28;;;;;;;1.08;0.30;;;11.00;99.90;;;;;;5093887;28;20495;-73
2023/01/13 06:29:55;;;;;;;0.38;0.10;;;10.90;99.90;;;;;;5094031;28;20038;-73
2023/01/13 06:32:28;;;;;;;2.58;0.20;;;11.00;99.90;;;;;;5093204;28;20028;-73
2023/01/13 06:34:58;;;;;;;0.98;0.10;;;10.90;99.90;;;;;;5094618;28;20024;-73
2023/01/13 06:37:26;;;;;;;0.88;0.10;;;10.90;99.90;;;;;;5093915;28;20491;-72
2023/01/13 06:39:58;;;;;;;1.98;0.30;;;10.90;99.90;;;;;;5094671;28;20024;-72
2023/01/13 06:45:16;;;;;;;0.30;0.20;;;10.90;99.90;;;;;;5053292;28;20062;-74
2023/01/13 06:47:42;;;;;;;0.00;0.00;;;10.90;99.90;;;;;;5092549;28;20468;-72
2023/01/13 06:50:09;;;;;;;0.43;0.20;;;10.90;99.90;;;;;;5094211;28;20027;-72
2023/01/13 06:52:35;;;;;;;1.10;0.22;;;10.90;99.90;;;;;;5093562;28;20020;-72
2023/01/13 06:55:01;;;;;;;2.53;0.20;;;10.90;99.90;;;;;;5094447;28;20026;-72
2023/01/13 06:57:27;;;;;;;0.80;0.25;;;10.90;99.90;;;;;;5093811;28;20080;-72
2023/01/13 06:59:52;;;;;;;0.22;0.17;;;10.90;99.90;;;;;;5100673;28;20024;-72
2023/01/13 07:02:18;;;;;;;0.60;0.20;;;10.90;99.90;;;;;;5093521;28;20024;-73
2023/01/13 07:04:45;;;;;;;0.40;0.30;;;10.90;99.90;;;;;;5094388;28;20456;-72
2023/01/13 07:07:11;;;;;;;0.82;0.10;;;10.90;99.90;;;;;;5112641;28;20016;-72
2023/01/13 07:09:37;;;;;;;1.65;0.20;;;10.90;99.90;;;;;;5093555;28;20503;-72
2023/01/13 07:12:03;;;;;;;1.42;0.10;;;10.80;99.90;;;;;;5111953;28;20055;-73
2023/01/13 07:17:13;;;;;;;2.22;0.30;;;10.90;99.90;;;;;;5111833;28;20054;-75
2023/01/13 07:19:38;;;;;;;0.22;0.20;;;10.80;99.90;;;;;;5114038;28;20027;-72
2023/01/13 07:22:04;;;;;;;1.80;0.20;;;10.70;99.90;;;;;;5098277;28;20411;-72
2023/01/13 07:24:29;;;;;;;2.03;0.30;;;10.80;99.90;;;;;;5097566;28;20107;-72
2023/01/13 07:26:55;;;;;;;1.67;0.30;;;10.80;99.90;;;;;;5098199;28;20488;-72
2023/01/13 07:29:21;;;;;;;1.10;0.20;;;10.80;99.90;;;;;;5086976;28;20028;-72
2023/01/13 07:31:47;;;;;;;0.68;0.30;;;10.80;99.90;;;;;;5096802;28;20035;-72
2023/01/13 07:34:12;;;;;;;0.43;0.20;;;10.70;99.90;;;;;;5116781;28;20050;-73
2023/01/13 07:36:38;;;;;;;0.63;0.10;;;10.50;99.90;;;;;;5097356;28;20384;-72
2023/01/13 07:39:04;;;;;;;1.10;0.10;;;10.10;99.90;;;;;;5091371;28;20020;-72
2023/01/13 07:44:14;;;;;;;2.90;0.20;;;9.50;99.90;;;;;;5116035;28;20023;-75
2023/01/13 07:46:40;;;;;;;2.65;0.65;;;9.40;99.90;;;;;;5115406;28;20381;-72
2023/01/13 07:49:07;;;;;;;2.17;0.22;;;9.30;99.90;;;;;;5097303;28;20397;-71
2023/01/13 07:51:36;;;;;;;0.52;0.20;;;9.30;99.90;;;;;;5096803;28;20388;-72
2023/01/13 07:54:01;;;;;;;0.40;0.40;;;9.30;99.90;;;;;;5115790;28;20104;-72
2023/01/13 07:56:27;;;;;;;2.75;0.20;;;9.30;99.90;;;;;;5114990;28;20062;-72
2023/01/13 07:58:53;;;;;;;1.00;0.20;;;9.30;99.90;;;;;;5115912;28;20032;-72
2023/01/13 08:01:19;;;;;;;4.40;0.30;;;9.30;99.90;;;;;;5096601;28;20385;-75
2023/01/13 08:03:44;;;;;;;1.88;0.28;;;9.30;99.90;;;;;;5115343;28;20065;-72
2023/01/13 08:06:11;;;;;;;0.68;0.20;;;9.40;99.90;;;;;;5097298;28;20108;-72
2023/01/13 08:08:37;;;;;;;2.30;0.32;;;9.40;99.90;;;;;;5114599;28;20322;-73
2023/01/13 08:11:04;;;;;;;1.75;0.13;;;9.40;99.90;;;;;;5096885;28;20092;-72
2023/01/13 08:13:30;;;;;;;1.10;0.20;;;9.40;99.90;;;;;;5114650;28;20084;-72
2023/01/13 08:16:06;;;;;;;1.48;0.30;;;9.40;99.90;;;;;;5115418;28;20027;-72
2023/01/13 08:18:32;;;;;;;0.57;0.20;;;9.40;99.90;;;;;;5103234;28;20046;-71
2023/01/13 08:21:08;;;;;;;1.10;0.10;;;9.50;99.90;;;;;;5105939;28;20464;-72
2023/01/13 08:23:33;;;;;;;3.55;0.30;;;9.40;99.90;;;;;;5099239;28;20060;-73
2023/01/13 08:26:14;;;;;;;1.92;0.20;;;9.50;99.90;;;;;;5097001;28;20055;-72
2023/01/13 08:28:40;;;;;;;0.67;0.30;;;9.50;99.90;;;;;;5114616;28;20019;-72
2023/01/13 08:31:09;;;;;;;0.77;0.30;;;9.50;99.90;;;;;;5106401;28;20431;-72
2023/01/13 08:33:35;;;;;;;3.38;0.20;;;9.40;99.90;;;;;;5113923;28;20699;-72
2023/01/13 08:36:06;;;;;;;2.83;0.32;;;9.40;99.90;;;;;;5114870;28;20024;-72
2023/01/13 08:38:33;;;;;;;1.55;0.20;;;9.40;99.90;;;;;;5107428;28;20019;-72
2023/01/13 08:40:59;;;;;;;0.90;0.20;;;9.40;99.90;;;;;;5114528;28;20408;-73
2023/01/13 08:43:25;;;;;;;0.77;0.30;;;9.40;99.90;;;;;;5099863;28;20020;-72
2023/01/13 08:45:59;;;;;;;2.92;0.25;;;9.40;99.90;;;;;;5114698;28;20117;-72
2023/01/13 08:48:25;;;;;;;3.20;0.40;;;9.40;99.90;;;;;;5113842;28;20049;-73
2023/01/13 08:50:52;;;;;;;4.72;1.13;;;9.40;99.90;;;;;;5104179;28;20032;-72
2023/01/13 08:53:18;;;;;;;1.88;0.30;;;9.40;99.90;;;;;;5114001;28;20346;-76
2023/01/13 08:55:43;;;;;;;3.33;0.40;;;9.50;99.90;;;;;;5096068;28;20437;-72
2023/01/13 08:58:09;;;;;;;2.75;0.70;;;9.50;99.90;;;;;;5111006;28;20110;-73
2023/01/13 09:00:34;;;;;;;3.47;0.50;;;9.50;99.90;;;;;;5113263;28;20216;-72
2023/01/13 09:03:00;;;;;;;2.72;0.70;;;9.50;99.90;;;;;;5103686;28;20115;-72
2023/01/13 09:05:26;;;;;;;2.25;1.00;;;9.50;99.90;;;;;;5113460;28;20361;-72
2023/01/13 09:07:51;;;;;;;2.45;0.40;;;9.50;99.90;;;;;;5114258;28;20022;-72
2023/01/13 09:10:17;;;;;;;1.20;0.47;;;9.60;99.90;;;;;;5095432;28;20077;-75
2023/01/13 09:15:27;;;;;;;4.20;0.55;;;9.60;99.90;;;;;;5113236;28;20084;-72
2023/01/13 09:17:52;;;;;;;1.20;0.60;;;9.60;99.90;;;;;;5111927;28;20040;-72
2023/01/13 09:20:18;;;;;;;5.00;0.63;;;9.60;99.90;;;;;;5113377;28;20406;-75
2023/01/13 09:22:43;;;;;;;1.42;0.25;;;9.60;99.90;;;;;;5102621;28;20024;-72
2023/01/13 09:25:11;;;;;;;0.93;0.35;;;9.60;99.90;;;;;;5101993;28;20031;-73
2023/01/13 09:27:37;;;;;;;2.15;0.40;;;9.60;99.90;;;;;;5109207;28;20107;-72
2023/01/13 09:30:03;;;;;;;1.33;0.63;;;9.60;99.90;;;;;;5096506;28;20119;-72
2023/01/13 09:32:29;;;;;;;1.33;0.30;;;9.60;99.90;;;;;;5111901;28;20528;-72
2023/01/13 09:35:00;;;;;;;2.42;0.70;;;9.70;99.90;;;;;;5113813;28;20094;-72
2023/01/13 09:37:35;;;;;;;2.75;0.55;;;9.70;99.90;;;;;;5094973;28;20046;-72
2023/01/13 09:40:08;;;;;;;3.28;0.60;;;9.70;99.90;;;;;;5080428;28;20031;-73
2023/01/13 09:45:49;;;;;;;3.53;0.98;;;9.80;99.90;;;;;;5113078;28;20039;-72
2023/01/13 09:48:22;;;;;;;0.80;0.30;;;9.80;99.90;;;;;;5113580;28;20024;-74
2023/01/13 09:51:15;;;;;;;0.88;0.40;;;9.90;99.90;;;;;;5102819;28;20107;-72
2023/01/13 09:53:54;;;;;;;1.17;0.45;;;9.90;99.90;;;;;;5095703;28;20047;-73
2023/01/13 09:56:21;;;;;;;2.65;0.60;;;10.00;99.90;;;;;;5111702;28;20062;-73
2023/01/13 09:58:47;;;;;;;3.83;0.65;;;10.00;99.90;;;;;;5104039;28;20468;-72
2023/01/13 10:01:40;;;;;;;3.85;0.60;;;10.00;99.90;;;;;;5113279;28;20035;-72
2023/01/13 10:04:11;;;;;;;3.40;1.08;;;10.00;99.90;;;;;;5098237;28;20031;-72
2023/01/13 10:06:42;;;;;;;3.70;0.95;;;10.10;99.90;;;;;;5111775;28;20020;-72
2023/01/13 10:09:45;;;;;;;3.17;0.50;;;10.10;99.90;;;;;;5102301;28;20028;-74
2023/01/13 10:15:12;;;;;;;6.10;0.52;;;10.10;99.90;;;;;;5113181;28;20486;-72
2023/01/13 10:17:49;;;;;;;3.28;0.50;;;10.10;99.90;;;;;;5110683;28;20043;-72
2023/01/13 10:20:38;;;;;;;4.70;0.65;;;10.10;99.90;;;;;;5112624;28;20019;-73
2023/01/13 10:23:16;;;;;;;2.38;0.70;;;10.20;99.90;;;;;;5058148;28;20028;-72
2023/01/13 10:26:07;;;;;;;3.45;0.90;;;10.20;99.90;;;;;;5096029;28;20024;-72
2023/01/13 10:28:33;;;;;;;4.47;0.95;;;10.10;99.90;;;;;;5108718;28;20032;-72
2023/01/13 10:30:59;;;;;;;4.43;0.50;;;10.10;99.90;;;;;;5105087;28;20036;-72
2023/01/13 10:33:28;;;;;;;7.28;1.00;;;10.10;99.90;;;;;;5110977;28;20038;-72
2023/01/13 10:36:14;;;;;;;4.25;0.63;;;10.10;99.90;;;;;;5112469;28;20072;-71
2023/01/13 10:38:44;;;;;;;6.40;0.75;;;10.00;99.90;;;;;;5103749;28;20068;-72
2023/01/13 10:41:18;;;;;;;2.60;0.50;;;10.00;99.90;;;;;;5104802;28;20028;-72
2023/01/13 10:43:50;;;;;;;3.80;0.75;;;10.10;99.90;;;;;;5111392;28;20051;-72
2023/01/13 10:46:17;;;;;;;1.75;0.40;;;10.10;99.90;;;;;;5110934;28;20055;-75
2023/01/13 10:48:58;;;;;;;3.20;0.68;;;10.20;99.90;;;;;;5104128;28;20110;-72
2023/01/13 10:51:38;;;;;;;5.72;0.90;;;10.30;99.90;;;;;;5106083;28;20032;-72
2023/01/13 10:54:11;;;;;;;2.88;0.57;;;10.40;99.90;;;;;;5074189;28;20030;-72
2023/01/13 10:56:38;;;;;;;6.78;0.68;;;10.40;99.90;;;;;;5088750;28;20080;-72
2023/01/13 10:59:27;;;;;;;5.78;0.63;;;10.40;99.90;;;;;;5104816;28;20028;-71
2023/01/13 11:02:00;;;;;;;7.97;0.90;;;10.30;99.90;;;;;;5110911;28;20109;-72
2023/01/13 11:04:33;;;;;;;4.90;0.80;;;10.20;99.90;;;;;;5105853;28;20030;-72
2023/01/13 11:07:00;;;;;;;2.72;0.52;;;10.20;99.90;;;;;;5112308;28;20099;-72
2023/01/13 11:09:27;;;;;;;5.45;0.70;;;10.20;99.90;;;;;;5097429;28;20031;-72
2023/01/13 11:11:54;;;;;;;4.10;0.60;;;10.20;99.90;;;;;;5110700;28;20062;-72
2023/01/13 11:14:32;;;;;;;2.65;0.80;;;10.20;99.90;;;;;;5111751;28;20156;-73
2023/01/13 11:17:04;;;;;;;4.93;0.73;;;10.20;99.90;;;;;;5102651;28;20027;-72
2023/01/13 11:19:31;;;;;;;6.07;0.70;;;10.20;99.90;;;;;;5093161;28;20089;-72
2023/01/13 11:22:06;;;;;;;6.68;1.77;;;10.30;99.90;;;;;;5094047;28;20047;-72
2023/01/13 11:24:43;;;;;;;5.40;0.80;;;10.30;99.90;;;;;;5110959;28;20558;-72
2023/01/13 11:27:15;;;;;;;3.05;0.80;;;10.20;99.90;;;;;;5093677;28;20031;-72
2023/01/13 11:30:08;;;;;;;2.88;0.63;;;10.30;99.90;;;;;;5081855;28;20504;-73
2023/01/13 11:32:40;;;;;;;3.17;0.70;;;10.20;99.90;;;;;;5111490;28;20024;-72
2023/01/13 11:35:27;;;;;;;3.65;0.40;;;10.20;99.90;;;;;;5093968;28;20032;-72
2023/01/13 11:38:09;;;;;;;3.63;0.68;;;10.30;99.90;;;;;;5093634;28;20051;-72
2023/01/13 11:40:45;;;;;;;2.35;0.50;;;10.40;99.90;;;;;;5111124;28;20024;-72
2023/01/13 11:43:26;;;;;;;5.88;0.90;;;10.50;99.90;;;;;;5093939;28;20055;-72
2023/01/13 11:46:00;;;;;;;7.50;1.15;;;10.50;99.90;;;;;;5093753;28;20064;-72
2023/01/13 11:48:29;;;;;;;3.83;1.10;;;10.40;99.90;;;;;;5093181;28;20042;-72
2023/01/13 11:51:15;;;;;;;4.82;1.50;;;10.40;99.90;;;;;;5093493;28;20472;-72
2023/01/13 11:53:59;;;;;;;4.82;1.05;;;10.30;99.90;;;;;;5093358;28;20027;-72
2023/01/13 11:57:02;;;;;;;5.28;0.80;;;10.10;99.90;;;;;;5111269;28;20023;-73
2023/01/13 12:00:09;;;;;;;1.88;0.40;;;9.80;99.90;;;;;;5092442;28;20027;-72
2023/01/13 12:03:00;;;;;;;2.83;0.60;;;9.60;99.90;;;;;;5111298;28;20065;-72
2023/01/13 12:05:43;;;;;;;8.27;1.15;;;9.70;99.90;;;;;;5113236;28;20422;-72
2023/01/13 12:08:15;;;;;;;3.20;0.73;;;9.60;99.90;;;;;;5097600;28;20039;-72
2023/01/13 12:11:02;;;;;;;3.58;0.68;;;9.50;99.90;;;;;;5096418;28;20043;-72
2023/01/13 12:13:40;;;;;;;5.00;0.80;;;9.50;99.90;;;;;;5096644;28;20041;-72
2023/01/13 12:16:29;;;;;;;5.40;0.90;;;9.50;99.90;;;;;;5082048;28;20028;-73
2023/01/13 12:19:06;;;;;;;3.53;0.60;;;9.70;99.90;;;;;;5103973;28;20052;-72
2023/01/13 12:22:00;;;;;;;6.70;0.93;;;9.90;99.90;;;;;;5114731;28;20491;-73
2023/01/13 12:25:04;;;;;;;7.00;0.70;;;10.10;99.90;;;;;;5096603;28;20070;-72
2023/01/13 12:27:54;;;;;;;4.80;0.95;;;10.40;99.90;;;;;;5109524;28;20513;-74
2023/01/13 12:30:57;;;;;;;11.43;3.95;;;10.80;99.90;;;;;;5096172;28;20066;-74
2023/01/13 12:33:46;;;;;;;6.18;1.02;;;11.20;99.90;;;;;;5114103;28;20503;-72
2023/01/13 12:36:37;;;;;;;3.40;0.57;;;11.60;99.90;;;;;;5100507;28;20020;-73
2023/01/13 12:39:16;;;;;;;3.42;0.55;;;11.50;99.90;;;;;;5104138;28;20027;-72
2023/01/13 12:45:11;;;;;;;7.15;0.82;;;10.90;99.90;;;;;;5114794;28;20031;-73
2023/01/13 12:47:44;;;;;;;5.72;0.75;;;10.50;99.90;;;;;;5098251;28;20078;-73
2023/01/13 12:50:22;;;;;;;4.63;0.80;;;10.50;99.90;;;;;;5096519;28;20035;-73
2023/01/13 12:53:31;;;;;;;1.90;0.55;;;10.60;99.90;;;;;;5096591;28;20067;-73
2023/01/13 12:56:34;;;;;;;4.57;0.60;;;10.70;99.90;;;;;;5080485;28;20114;-73
2023/01/13 12:59:18;;;;;;;1.98;0.40;;;10.20;99.90;;;;;;5101689;28;20549;-73
2023/01/13 13:01:49;;;;;;;2.75;0.32;;;10.00;99.90;;;;;;5094152;28;20028;-73
2023/01/13 13:04:20;;;;;;;8.68;0.52;;;9.90;99.90;;;;;;5100575;28;20142;-72
2023/01/13 13:07:08;;;;;;;2.20;0.60;;;9.80;99.90;;;;;;5114394;28;20039;-72
2023/01/13 13:09:43;;;;;;;3.65;0.63;;;9.70;99.90;;;;;;5109405;28;20733;-73
2023/01/13 13:15:34;;;;;;;2.88;0.50;;;9.60;99.90;;;;;;5113893;28;20119;-73
2023/01/13 13:18:23;;;;;;;3.13;0.98;;;9.70;99.90;;;;;;5091367;28;20048;-72
2023/01/13 13:21:04;;;;;;;2.13;0.57;;;9.70;99.90;;;;;;5092022;28;20028;-73
2023/01/13 13:23:35;;;;;;;3.13;0.40;;;9.70;99.90;;;;;;5091722;28;20077;-72
2023/01/13 13:26:41;;;;;;;2.15;0.60;;;9.60;99.90;;;;;;5093717;28;20491;-72
2023/01/13 13:29:51;;;;;;;5.07;0.60;;;9.60;99.90;;;;;;5092017;28;20040;-73
2023/01/13 13:32:37;;;;;;;2.53;0.77;;;9.60;99.90;;;;;;5087966;28;20028;-74
2023/01/13 13:35:40;;;;;;;3.22;0.85;;;9.80;99.90;;;;;;5090498;28;20039;-72
2023/01/13 13:47:15;;;;;;;8.95;0.98;;;11.20;99.90;;;;;;5093514;28;20096;-74
2023/01/13 13:49:52;;;;;;;8.65;1.27;;;11.30;99.90;;;;;;5090999;28;20028;-73
2023/01/13 13:52:24;;;;;;;6.00;1.20;;;11.40;99.90;;;;;;5091500;28;20460;-75
2023/01/13 13:54:54;;;;;;;4.80;1.00;;;11.00;99.90;;;;;;5091788;28;20028;-73
2023/01/13 13:57:35;;;;;;;4.88;0.90;;;10.70;99.90;;;;;;5091235;28;20111;-75
2023/01/13 14:00:26;;;;;;;5.55;1.00;;;10.50;99.90;;;;;;5086987;28;20043;-73
2023/01/13 14:03:00;;;;;;;3.70;0.98;;;10.20;99.90;;;;;;5092465;28;20404;-73
2023/01/13 14:05:36;;;;;;;6.30;0.70;;;10.00;99.90;;;;;;5090969;28;20027;-73
2023/01/13 14:08:16;;;;;;;7.53;1.27;;;10.00;99.90;;;;;;5091586;28;20024;-73
2023/01/13 14:10:43;;;;;;;5.80;0.80;;;9.90;99.90;;;;;;5090658;28;20118;-73